sensor_id;sensor_type;location;lat;lon;timestamp;P1;durP1;ratioP1;P2;durP2;ratioP2
13743;SDS011;6943;52.368;9.966;2024-02-14T00:00:48;4.90;;;2.93;;
13743;SDS011;6943;52.368;9.966;2024-02-14T00:03:15;9.50;;;5.70;;
13743;SDS011;6943;52.368;9.966;2024-02-14T00:05:42;4.10;;;2.90;;
13743;SDS011;6943;52.368;9.966;2024-02-14T00:08:09;5.33;;;3.60;;
13743;SDS011;6943;52.368;9.966;2024-02-14T00:10:38;10.33;;;4.63;;
13743;SDS011;6943;52.368;9.966;2024-02-14T00:13:05;6.63;;;3.87;;
13743;SDS011;6943;52.368;9.966;2024-02-14T00:15:33;9.27;;;5.60;;
13743;SDS011;6943;52.368;9.966;2024-02-14T00:18:00;9.57;;;6.20;;
13743;SDS011;6943;52.368;9.966;2024-02-14T00:20:27;3.43;;;2.17;;
13743;SDS011;6943;52.368;9.966;2024-02-14T00:22:54;6.63;;;5.23;;
13743;SDS011;6943;52.368;9.966;2024-02-14T00:25:21;5.27;;;2.70;;
13743;SDS011;6943;52.368;9.966;2024-02-14T00:27:48;4.80;;;3.00;;
13743;SDS011;6943;52.368;9.966;2024-02-14T00:30:15;5.03;;;3.23;;
13743;SDS011;6943;52.368;9.966;2024-02-14T00:32:41;4.60;;;2.93;;
13743;SDS011;6943;52.368;9.966;2024-02-14T00:35:08;6.03;;;2.57;;
13743;SDS011;6943;52.368;9.966;2024-02-14T00:37:35;2.90;;;2.20;;
13743;SDS011;6943;52.368;9.966;2024-02-14T00:40:02;3.70;;;2.17;;
13743;SDS011;6943;52.368;9.966;2024-02-14T00:42:30;4.23;;;2.53;;
13743;SDS011;6943;52.368;9.966;2024-02-14T00:44:57;6.20;;;3.47;;
13743;SDS011;6943;52.368;9.966;2024-02-14T00:47:24;5.00;;;3.00;;
13743;SDS011;6943;52.368;9.966;2024-02-14T00:49:51;4.87;;;2.30;;
13743;SDS011;6943;52.368;9.966;2024-02-14T00:52:18;4.73;;;2.13;;
13743;SDS011;6943;52.368;9.966;2024-02-14T00:54:46;4.53;;;2.83;;
13743;SDS011;6943;52.368;9.966;2024-02-14T00:57:13;4.20;;;2.47;;
13743;SDS011;6943;52.368;9.966;2024-02-14T00:59:41;3.20;;;2.10;;
13743;SDS011;6943;52.368;9.966;2024-02-14T01:02:08;4.03;;;2.53;;
13743;SDS011;6943;52.368;9.966;2024-02-14T01:04:36;7.90;;;4.00;;
13743;SDS011;6943;52.368;9.966;2024-02-14T01:07:03;3.03;;;2.13;;
13743;SDS011;6943;52.368;9.966;2024-02-14T01:09:30;3.30;;;2.13;;
13743;SDS011;6943;52.368;9.966;2024-02-14T01:11:58;2.93;;;2.03;;
13743;SDS011;6943;52.368;9.966;2024-02-14T01:14:25;3.20;;;2.60;;
13743;SDS011;6943;52.368;9.966;2024-02-14T01:16:52;3.40;;;2.03;;
13743;SDS011;6943;52.368;9.966;2024-02-14T01:19:19;3.97;;;2.87;;
13743;SDS011;6943;52.368;9.966;2024-02-14T01:21:48;3.67;;;2.30;;
13743;SDS011;6943;52.368;9.966;2024-02-14T01:24:15;2.20;;;2.00;;
13743;SDS011;6943;52.368;9.966;2024-02-14T01:26:43;3.30;;;2.00;;
13743;SDS011;6943;52.368;9.966;2024-02-14T01:29:10;4.30;;;1.90;;
13743;SDS011;6943;52.368;9.966;2024-02-14T01:31:37;3.57;;;2.00;;
13743;SDS011;6943;52.368;9.966;2024-02-14T01:34:04;2.10;;;1.70;;
13743;SDS011;6943;52.368;9.966;2024-02-14T01:36:31;2.80;;;2.00;;
13743;SDS011;6943;52.368;9.966;2024-02-14T01:38:58;3.67;;;2.03;;
13743;SDS011;6943;52.368;9.966;2024-02-14T01:41:25;3.10;;;1.77;;
13743;SDS011;6943;52.368;9.966;2024-02-14T01:43:52;3.07;;;2.00;;
13743;SDS011;6943;52.368;9.966;2024-02-14T01:46:20;3.00;;;1.87;;
13743;SDS011;6943;52.368;9.966;2024-02-14T01:48:47;2.27;;;1.93;;
13743;SDS011;6943;52.368;9.966;2024-02-14T01:51:14;3.40;;;1.80;;
13743;SDS011;6943;52.368;9.966;2024-02-14T01:53:42;2.43;;;1.97;;
13743;SDS011;6943;52.368;9.966;2024-02-14T01:56:10;2.83;;;1.87;;
13743;SDS011;6943;52.368;9.966;2024-02-14T01:58:37;4.77;;;2.00;;
13743;SDS011;6943;52.368;9.966;2024-02-14T02:01:05;5.20;;;2.10;;
13743;SDS011;6943;52.368;9.966;2024-02-14T02:03:32;3.33;;;1.97;;
13743;SDS011;6943;52.368;9.966;2024-02-14T02:06:01;4.23;;;2.10;;
13743;SDS011;6943;52.368;9.966;2024-02-14T02:08:28;3.07;;;1.70;;
13743;SDS011;6943;52.368;9.966;2024-02-14T02:10:55;2.07;;;1.80;;
13743;SDS011;6943;52.368;9.966;2024-02-14T02:13:22;2.67;;;1.80;;
13743;SDS011;6943;52.368;9.966;2024-02-14T02:15:51;3.17;;;2.37;;
13743;SDS011;6943;52.368;9.966;2024-02-14T02:18:18;2.77;;;2.00;;
13743;SDS011;6943;52.368;9.966;2024-02-14T02:20:45;3.80;;;2.60;;
13743;SDS011;6943;52.368;9.966;2024-02-14T02:23:12;3.07;;;2.23;;
13743;SDS011;6943;52.368;9.966;2024-02-14T02:25:40;6.70;;;2.47;;
13743;SDS011;6943;52.368;9.966;2024-02-14T02:28:07;5.47;;;2.30;;
13743;SDS011;6943;52.368;9.966;2024-02-14T02:30:35;2.87;;;2.00;;
13743;SDS011;6943;52.368;9.966;2024-02-14T02:33:02;3.60;;;2.17;;
13743;SDS011;6943;52.368;9.966;2024-02-14T02:35:30;5.70;;;2.50;;
13743;SDS011;6943;52.368;9.966;2024-02-14T02:37:57;5.03;;;2.20;;
13743;SDS011;6943;52.368;9.966;2024-02-14T02:40:24;2.43;;;2.20;;
13743;SDS011;6943;52.368;9.966;2024-02-14T02:42:54;3.77;;;2.23;;
13743;SDS011;6943;52.368;9.966;2024-02-14T02:45:21;3.73;;;2.43;;
13743;SDS011;6943;52.368;9.966;2024-02-14T02:47:49;5.60;;;2.83;;
13743;SDS011;6943;52.368;9.966;2024-02-14T02:50:17;5.87;;;2.27;;
13743;SDS011;6943;52.368;9.966;2024-02-14T02:52:44;5.53;;;2.40;;
13743;SDS011;6943;52.368;9.966;2024-02-14T02:55:11;4.70;;;2.53;;
13743;SDS011;6943;52.368;9.966;2024-02-14T02:57:40;5.10;;;2.30;;
13743;SDS011;6943;52.368;9.966;2024-02-14T03:00:08;4.90;;;2.63;;
13743;SDS011;6943;52.368;9.966;2024-02-14T03:02:37;5.17;;;3.33;;
13743;SDS011;6943;52.368;9.966;2024-02-14T03:05:09;3.90;;;2.80;;
13743;SDS011;6943;52.368;9.966;2024-02-14T03:07:42;3.30;;;2.80;;
13743;SDS011;6943;52.368;9.966;2024-02-14T03:10:10;5.13;;;3.47;;
13743;SDS011;6943;52.368;9.966;2024-02-14T03:12:42;5.17;;;3.20;;
13743;SDS011;6943;52.368;9.966;2024-02-14T03:15:09;4.73;;;3.30;;
13743;SDS011;6943;52.368;9.966;2024-02-14T03:17:38;7.53;;;3.30;;
13743;SDS011;6943;52.368;9.966;2024-02-14T03:20:05;4.63;;;3.20;;
13743;SDS011;6943;52.368;9.966;2024-02-14T03:22:37;5.93;;;3.03;;
13743;SDS011;6943;52.368;9.966;2024-02-14T03:25:09;4.43;;;3.17;;
13743;SDS011;6943;52.368;9.966;2024-02-14T03:27:36;6.17;;;3.53;;
13743;SDS011;6943;52.368;9.966;2024-02-14T03:30:05;5.20;;;3.27;;
13743;SDS011;6943;52.368;9.966;2024-02-14T03:32:32;5.90;;;3.40;;
13743;SDS011;6943;52.368;9.966;2024-02-14T03:34:59;3.60;;;3.10;;
13743;SDS011;6943;52.368;9.966;2024-02-14T03:37:28;6.73;;;3.40;;
13743;SDS011;6943;52.368;9.966;2024-02-14T03:39:55;4.03;;;3.13;;
13743;SDS011;6943;52.368;9.966;2024-02-14T03:42:22;4.67;;;2.97;;
13743;SDS011;6943;52.368;9.966;2024-02-14T03:44:51;5.00;;;3.83;;
13743;SDS011;6943;52.368;9.966;2024-02-14T03:47:25;5.57;;;3.23;;
13743;SDS011;6943;52.368;9.966;2024-02-14T03:49:52;6.77;;;3.23;;
13743;SDS011;6943;52.368;9.966;2024-02-14T03:52:19;6.03;;;3.27;;
13743;SDS011;6943;52.368;9.966;2024-02-14T03:54:48;4.90;;;3.07;;
13743;SDS011;6943;52.368;9.966;2024-02-14T03:57:15;5.57;;;2.93;;
13743;SDS011;6943;52.368;9.966;2024-02-14T03:59:43;5.97;;;3.30;;
13743;SDS011;6943;52.368;9.966;2024-02-14T04:02:10;5.60;;;2.93;;
13743;SDS011;6943;52.368;9.966;2024-02-14T04:04:38;6.17;;;3.20;;
13743;SDS011;6943;52.368;9.966;2024-02-14T04:07:05;3.10;;;2.80;;
13743;SDS011;6943;52.368;9.966;2024-02-14T04:09:33;3.93;;;3.10;;
13743;SDS011;6943;52.368;9.966;2024-02-14T04:12:00;3.70;;;2.90;;
13743;SDS011;6943;52.368;9.966;2024-02-14T04:14:28;4.80;;;2.73;;
13743;SDS011;6943;52.368;9.966;2024-02-14T04:16:55;3.70;;;2.60;;
13743;SDS011;6943;52.368;9.966;2024-02-14T04:19:23;3.20;;;2.60;;
13743;SDS011;6943;52.368;9.966;2024-02-14T04:21:50;4.30;;;3.07;;
13743;SDS011;6943;52.368;9.966;2024-02-14T04:24:18;3.87;;;2.70;;
13743;SDS011;6943;52.368;9.966;2024-02-14T04:26:45;5.80;;;2.80;;
13743;SDS011;6943;52.368;9.966;2024-02-14T04:29:14;5.73;;;2.43;;
13743;SDS011;6943;52.368;9.966;2024-02-14T04:31:41;4.70;;;2.93;;
13743;SDS011;6943;52.368;9.966;2024-02-14T04:34:08;3.83;;;3.03;;
13743;SDS011;6943;52.368;9.966;2024-02-14T04:36:36;5.13;;;3.17;;
13743;SDS011;6943;52.368;9.966;2024-02-14T04:39:03;9.07;;;3.83;;
13743;SDS011;6943;52.368;9.966;2024-02-14T04:41:30;5.57;;;3.53;;
13743;SDS011;6943;52.368;9.966;2024-02-14T04:44:02;6.23;;;4.13;;
13743;SDS011;6943;52.368;9.966;2024-02-14T04:46:31;4.67;;;3.40;;
13743;SDS011;6943;52.368;9.966;2024-02-14T04:48:59;4.57;;;3.40;;
13743;SDS011;6943;52.368;9.966;2024-02-14T04:51:28;6.33;;;3.20;;
13743;SDS011;6943;52.368;9.966;2024-02-14T04:53:55;6.70;;;3.07;;
13743;SDS011;6943;52.368;9.966;2024-02-14T04:56:26;5.03;;;3.20;;
13743;SDS011;6943;52.368;9.966;2024-02-14T04:58:53;5.77;;;3.03;;
13743;SDS011;6943;52.368;9.966;2024-02-14T05:01:20;6.27;;;2.90;;
13743;SDS011;6943;52.368;9.966;2024-02-14T05:03:48;4.17;;;2.43;;
13743;SDS011;6943;52.368;9.966;2024-02-14T05:06:15;4.33;;;2.93;;
13743;SDS011;6943;52.368;9.966;2024-02-14T05:08:42;5.20;;;3.00;;
13743;SDS011;6943;52.368;9.966;2024-02-14T05:11:11;4.50;;;2.87;;
13743;SDS011;6943;52.368;9.966;2024-02-14T05:13:38;3.03;;;2.40;;
13743;SDS011;6943;52.368;9.966;2024-02-14T05:16:07;2.80;;;2.50;;
13743;SDS011;6943;52.368;9.966;2024-02-14T05:18:36;3.80;;;2.87;;
13743;SDS011;6943;52.368;9.966;2024-02-14T05:21:07;4.60;;;2.87;;
13743;SDS011;6943;52.368;9.966;2024-02-14T05:23:34;2.97;;;2.30;;
13743;SDS011;6943;52.368;9.966;2024-02-14T05:26:04;4.63;;;2.60;;
13743;SDS011;6943;52.368;9.966;2024-02-14T05:28:33;3.43;;;2.57;;
13743;SDS011;6943;52.368;9.966;2024-02-14T05:31:00;3.40;;;2.67;;
13743;SDS011;6943;52.368;9.966;2024-02-14T05:33:29;3.90;;;2.23;;
13743;SDS011;6943;52.368;9.966;2024-02-14T05:35:56;7.03;;;2.73;;
13743;SDS011;6943;52.368;9.966;2024-02-14T05:38:25;8.43;;;3.07;;
13743;SDS011;6943;52.368;9.966;2024-02-14T05:40:52;3.47;;;2.40;;
13743;SDS011;6943;52.368;9.966;2024-02-14T05:43:19;5.90;;;2.87;;
13743;SDS011;6943;52.368;9.966;2024-02-14T05:45:49;5.27;;;2.77;;
13743;SDS011;6943;52.368;9.966;2024-02-14T05:48:18;4.00;;;2.53;;
13743;SDS011;6943;52.368;9.966;2024-02-14T05:50:45;3.63;;;2.50;;
13743;SDS011;6943;52.368;9.966;2024-02-14T05:53:14;4.37;;;2.40;;
13743;SDS011;6943;52.368;9.966;2024-02-14T05:55:43;4.03;;;2.60;;
13743;SDS011;6943;52.368;9.966;2024-02-14T05:58:10;4.10;;;2.60;;
13743;SDS011;6943;52.368;9.966;2024-02-14T06:00:40;5.33;;;2.63;;
13743;SDS011;6943;52.368;9.966;2024-02-14T06:03:08;4.43;;;2.43;;
13743;SDS011;6943;52.368;9.966;2024-02-14T06:05:37;5.47;;;2.73;;
13743;SDS011;6943;52.368;9.966;2024-02-14T06:08:06;6.57;;;3.30;;
13743;SDS011;6943;52.368;9.966;2024-02-14T06:10:33;4.67;;;3.33;;
13743;SDS011;6943;52.368;9.966;2024-02-14T06:13:03;6.07;;;3.20;;
13743;SDS011;6943;52.368;9.966;2024-02-14T06:15:33;5.00;;;3.23;;
13743;SDS011;6943;52.368;9.966;2024-02-14T06:18:01;4.20;;;2.83;;
13743;SDS011;6943;52.368;9.966;2024-02-14T06:20:31;3.37;;;2.43;;
13743;SDS011;6943;52.368;9.966;2024-02-14T06:22:59;5.17;;;2.50;;
13743;SDS011;6943;52.368;9.966;2024-02-14T06:25:28;3.17;;;2.60;;
13743;SDS011;6943;52.368;9.966;2024-02-14T06:27:57;5.27;;;2.77;;
13743;SDS011;6943;52.368;9.966;2024-02-14T06:30:27;3.80;;;3.03;;
13743;SDS011;6943;52.368;9.966;2024-02-14T06:32:55;4.20;;;2.50;;
13743;SDS011;6943;52.368;9.966;2024-02-14T06:35:25;7.93;;;2.27;;
13743;SDS011;6943;52.368;9.966;2024-02-14T06:37:53;3.23;;;2.20;;
13743;SDS011;6943;52.368;9.966;2024-02-14T06:40:22;3.90;;;1.90;;
13743;SDS011;6943;52.368;9.966;2024-02-14T06:42:49;4.37;;;2.27;;
13743;SDS011;6943;52.368;9.966;2024-02-14T06:45:19;6.40;;;2.40;;
13743;SDS011;6943;52.368;9.966;2024-02-14T06:47:48;4.30;;;2.43;;
13743;SDS011;6943;52.368;9.966;2024-02-14T06:50:17;2.87;;;2.30;;
13743;SDS011;6943;52.368;9.966;2024-02-14T06:52:46;3.20;;;2.27;;
13743;SDS011;6943;52.368;9.966;2024-02-14T06:55:14;4.13;;;2.77;;
13743;SDS011;6943;52.368;9.966;2024-02-14T06:57:43;3.57;;;2.73;;
13743;SDS011;6943;52.368;9.966;2024-02-14T07:00:12;3.50;;;2.27;;
13743;SDS011;6943;52.368;9.966;2024-02-14T07:02:41;3.33;;;2.50;;
13743;SDS011;6943;52.368;9.966;2024-02-14T07:05:08;3.83;;;2.03;;
13743;SDS011;6943;52.368;9.966;2024-02-14T07:07:39;3.03;;;2.20;;
13743;SDS011;6943;52.368;9.966;2024-02-14T07:10:08;3.83;;;2.37;;
13743;SDS011;6943;52.368;9.966;2024-02-14T07:12:37;3.27;;;2.60;;
13743;SDS011;6943;52.368;9.966;2024-02-14T07:15:06;4.07;;;2.50;;
13743;SDS011;6943;52.368;9.966;2024-02-14T07:17:36;3.70;;;2.37;;
13743;SDS011;6943;52.368;9.966;2024-02-14T07:20:05;4.93;;;2.40;;
13743;SDS011;6943;52.368;9.966;2024-02-14T07:22:37;5.57;;;2.83;;
13743;SDS011;6943;52.368;9.966;2024-02-14T07:25:06;2.97;;;2.20;;
13743;SDS011;6943;52.368;9.966;2024-02-14T07:27:35;3.63;;;2.50;;
13743;SDS011;6943;52.368;9.966;2024-02-14T07:30:04;3.90;;;2.20;;
13743;SDS011;6943;52.368;9.966;2024-02-14T07:32:33;3.73;;;2.50;;
13743;SDS011;6943;52.368;9.966;2024-02-14T07:35:02;2.57;;;2.33;;
13743;SDS011;6943;52.368;9.966;2024-02-14T07:37:31;2.90;;;1.87;;
13743;SDS011;6943;52.368;9.966;2024-02-14T07:39:59;2.50;;;2.00;;
13743;SDS011;6943;52.368;9.966;2024-02-14T07:42:27;3.30;;;2.17;;
13743;SDS011;6943;52.368;9.966;2024-02-14T07:44:56;3.13;;;2.00;;
13743;SDS011;6943;52.368;9.966;2024-02-14T07:47:25;3.27;;;2.07;;
13743;SDS011;6943;52.368;9.966;2024-02-14T07:49:54;3.03;;;2.10;;
13743;SDS011;6943;52.368;9.966;2024-02-14T07:52:23;2.83;;;2.33;;
13743;SDS011;6943;52.368;9.966;2024-02-14T07:54:53;3.17;;;2.13;;
13743;SDS011;6943;52.368;9.966;2024-02-14T07:57:22;3.60;;;2.13;;
13743;SDS011;6943;52.368;9.966;2024-02-14T07:59:52;3.03;;;1.90;;
13743;SDS011;6943;52.368;9.966;2024-02-14T08:02:21;4.37;;;2.13;;
13743;SDS011;6943;52.368;9.966;2024-02-14T08:04:49;6.90;;;2.23;;
13743;SDS011;6943;52.368;9.966;2024-02-14T08:07:18;4.23;;;2.10;;
13743;SDS011;6943;52.368;9.966;2024-02-14T08:09:45;2.50;;;2.17;;
13743;SDS011;6943;52.368;9.966;2024-02-14T08:12:14;3.30;;;1.73;;
13743;SDS011;6943;52.368;9.966;2024-02-14T08:14:43;4.50;;;2.30;;
13743;SDS011;6943;52.368;9.966;2024-02-14T08:17:12;4.30;;;2.00;;
13743;SDS011;6943;52.368;9.966;2024-02-14T08:19:39;2.20;;;1.97;;
13743;SDS011;6943;52.368;9.966;2024-02-14T08:22:08;2.20;;;1.67;;
13743;SDS011;6943;52.368;9.966;2024-02-14T08:24:37;1.93;;;1.80;;
13743;SDS011;6943;52.368;9.966;2024-02-14T08:27:06;3.27;;;2.10;;
13743;SDS011;6943;52.368;9.966;2024-02-14T08:29:35;2.00;;;1.80;;
13743;SDS011;6943;52.368;9.966;2024-02-14T08:32:03;3.07;;;2.10;;
13743;SDS011;6943;52.368;9.966;2024-02-14T08:34:32;3.47;;;2.00;;
13743;SDS011;6943;52.368;9.966;2024-02-14T08:37:01;4.57;;;1.90;;
13743;SDS011;6943;52.368;9.966;2024-02-14T08:39:28;3.03;;;1.70;;
13743;SDS011;6943;52.368;9.966;2024-02-14T08:41:57;2.50;;;1.70;;
13743;SDS011;6943;52.368;9.966;2024-02-14T08:44:32;2.83;;;1.60;;
13743;SDS011;6943;52.368;9.966;2024-02-14T08:47:02;1.67;;;1.57;;
13743;SDS011;6943;52.368;9.966;2024-02-14T08:49:31;1.97;;;1.43;;
13743;SDS011;6943;52.368;9.966;2024-02-14T08:52:00;2.20;;;1.90;;
13743;SDS011;6943;52.368;9.966;2024-02-14T08:54:29;4.10;;;1.67;;
13743;SDS011;6943;52.368;9.966;2024-02-14T08:56:58;1.30;;;1.20;;
13743;SDS011;6943;52.368;9.966;2024-02-14T08:59:27;3.53;;;1.60;;
13743;SDS011;6943;52.368;9.966;2024-02-14T09:01:56;2.33;;;1.57;;
13743;SDS011;6943;52.368;9.966;2024-02-14T09:04:25;2.40;;;1.63;;
13743;SDS011;6943;52.368;9.966;2024-02-14T09:06:54;1.50;;;1.40;;
13743;SDS011;6943;52.368;9.966;2024-02-14T09:09:25;1.63;;;1.53;;
13743;SDS011;6943;52.368;9.966;2024-02-14T09:11:54;2.43;;;1.50;;
13743;SDS011;6943;52.368;9.966;2024-02-14T09:14:22;1.47;;;1.37;;
13743;SDS011;6943;52.368;9.966;2024-02-14T09:16:51;1.73;;;1.63;;
13743;SDS011;6943;52.368;9.966;2024-02-14T09:19:20;1.90;;;1.70;;
13743;SDS011;6943;52.368;9.966;2024-02-14T09:21:50;4.10;;;1.87;;
13743;SDS011;6943;52.368;9.966;2024-02-14T09:24:19;2.03;;;1.70;;
13743;SDS011;6943;52.368;9.966;2024-02-14T09:26:47;1.67;;;1.50;;
13743;SDS011;6943;52.368;9.966;2024-02-14T09:29:16;2.17;;;1.70;;
13743;SDS011;6943;52.368;9.966;2024-02-14T09:31:45;2.00;;;1.80;;
13743;SDS011;6943;52.368;9.966;2024-02-14T09:34:14;1.90;;;1.70;;
13743;SDS011;6943;52.368;9.966;2024-02-14T09:36:44;3.17;;;2.23;;
13743;SDS011;6943;52.368;9.966;2024-02-14T09:39:14;2.23;;;2.03;;
13743;SDS011;6943;52.368;9.966;2024-02-14T09:41:44;2.77;;;2.17;;
13743;SDS011;6943;52.368;9.966;2024-02-14T09:44:14;2.40;;;2.20;;
13743;SDS011;6943;52.368;9.966;2024-02-14T09:46:43;3.53;;;2.00;;
13743;SDS011;6943;52.368;9.966;2024-02-14T09:49:11;3.23;;;2.60;;
13743;SDS011;6943;52.368;9.966;2024-02-14T09:51:42;3.50;;;2.67;;
13743;SDS011;6943;52.368;9.966;2024-02-14T09:54:12;3.77;;;3.30;;
13743;SDS011;6943;52.368;9.966;2024-02-14T09:56:41;4.17;;;2.73;;
13743;SDS011;6943;52.368;9.966;2024-02-14T09:59:09;3.80;;;3.27;;
13743;SDS011;6943;52.368;9.966;2024-02-14T10:01:38;3.73;;;3.10;;
13743;SDS011;6943;52.368;9.966;2024-02-14T10:04:07;5.10;;;3.67;;
13743;SDS011;6943;52.368;9.966;2024-02-14T10:06:36;6.20;;;4.40;;
13743;SDS011;6943;52.368;9.966;2024-02-14T10:09:05;6.13;;;4.30;;
13743;SDS011;6943;52.368;9.966;2024-02-14T10:11:35;4.33;;;3.90;;
13743;SDS011;6943;52.368;9.966;2024-02-14T10:14:05;5.10;;;3.80;;
13743;SDS011;6943;52.368;9.966;2024-02-14T10:16:37;5.37;;;4.17;;
13743;SDS011;6943;52.368;9.966;2024-02-14T10:19:04;4.17;;;3.43;;
13743;SDS011;6943;52.368;9.966;2024-02-14T10:21:33;5.03;;;4.53;;
13743;SDS011;6943;52.368;9.966;2024-02-14T10:24:01;5.13;;;4.40;;
13743;SDS011;6943;52.368;9.966;2024-02-14T10:26:32;4.70;;;4.20;;
13743;SDS011;6943;52.368;9.966;2024-02-14T10:29:01;4.93;;;4.43;;
13743;SDS011;6943;52.368;9.966;2024-02-14T10:31:30;5.43;;;4.20;;
13743;SDS011;6943;52.368;9.966;2024-02-14T10:33:59;5.47;;;4.30;;
13743;SDS011;6943;52.368;9.966;2024-02-14T10:36:31;5.97;;;4.20;;
13743;SDS011;6943;52.368;9.966;2024-02-14T10:39:00;5.07;;;4.10;;
13743;SDS011;6943;52.368;9.966;2024-02-14T10:41:30;4.90;;;4.23;;
13743;SDS011;6943;52.368;9.966;2024-02-14T10:44:03;4.03;;;3.73;;
13743;SDS011;6943;52.368;9.966;2024-02-14T10:46:32;5.37;;;4.20;;
13743;SDS011;6943;52.368;9.966;2024-02-14T10:49:05;4.17;;;3.77;;
13743;SDS011;6943;52.368;9.966;2024-02-14T10:51:34;4.87;;;3.93;;
13743;SDS011;6943;52.368;9.966;2024-02-14T10:54:06;4.30;;;3.87;;
13743;SDS011;6943;52.368;9.966;2024-02-14T10:56:45;5.97;;;4.07;;
13743;SDS011;6943;52.368;9.966;2024-02-14T10:59:17;8.20;;;4.13;;
13743;SDS011;6943;52.368;9.966;2024-02-14T11:01:47;4.30;;;3.90;;
13743;SDS011;6943;52.368;9.966;2024-02-14T11:04:16;4.47;;;3.87;;
13743;SDS011;6943;52.368;9.966;2024-02-14T11:06:47;4.23;;;3.63;;
13743;SDS011;6943;52.368;9.966;2024-02-14T11:09:17;3.93;;;3.60;;
13743;SDS011;6943;52.368;9.966;2024-02-14T11:11:46;3.73;;;3.43;;
13743;SDS011;6943;52.368;9.966;2024-02-14T11:14:15;4.87;;;3.83;;
13743;SDS011;6943;52.368;9.966;2024-02-14T11:16:45;4.77;;;3.87;;
13743;SDS011;6943;52.368;9.966;2024-02-14T11:19:14;4.13;;;3.73;;
13743;SDS011;6943;52.368;9.966;2024-02-14T11:21:45;3.90;;;3.50;;
13743;SDS011;6943;52.368;9.966;2024-02-14T11:24:16;5.50;;;4.27;;
13743;SDS011;6943;52.368;9.966;2024-02-14T11:26:51;6.33;;;4.10;;
13743;SDS011;6943;52.368;9.966;2024-02-14T11:29:20;3.70;;;3.40;;
13743;SDS011;6943;52.368;9.966;2024-02-14T11:31:56;3.90;;;3.60;;
13743;SDS011;6943;52.368;9.966;2024-02-14T11:34:27;3.87;;;3.47;;
13743;SDS011;6943;52.368;9.966;2024-02-14T11:36:59;3.50;;;3.20;;
13743;SDS011;6943;52.368;9.966;2024-02-14T11:39:27;5.50;;;3.80;;
13743;SDS011;6943;52.368;9.966;2024-02-14T11:41:58;4.13;;;3.73;;
13743;SDS011;6943;52.368;9.966;2024-02-14T11:44:26;5.30;;;4.03;;
13743;SDS011;6943;52.368;9.966;2024-02-14T11:46:54;4.03;;;3.73;;
13743;SDS011;6943;52.368;9.966;2024-02-14T11:49:22;5.70;;;3.30;;
13743;SDS011;6943;52.368;9.966;2024-02-14T11:51:51;4.10;;;3.40;;
13743;SDS011;6943;52.368;9.966;2024-02-14T11:54:20;3.90;;;3.60;;
13743;SDS011;6943;52.368;9.966;2024-02-14T11:56:49;4.57;;;3.80;;
13743;SDS011;6943;52.368;9.966;2024-02-14T11:59:18;5.23;;;3.50;;
13743;SDS011;6943;52.368;9.966;2024-02-14T12:01:48;4.03;;;3.63;;
13743;SDS011;6943;52.368;9.966;2024-02-14T12:04:18;4.03;;;3.33;;
13743;SDS011;6943;52.368;9.966;2024-02-14T12:06:47;4.37;;;3.23;;
13743;SDS011;6943;52.368;9.966;2024-02-14T12:09:16;4.43;;;3.97;;
13743;SDS011;6943;52.368;9.966;2024-02-14T12:11:46;4.57;;;3.57;;
13743;SDS011;6943;52.368;9.966;2024-02-14T12:14:15;5.57;;;5.07;;
13743;SDS011;6943;52.368;9.966;2024-02-14T12:16:49;7.00;;;5.00;;
13743;SDS011;6943;52.368;9.966;2024-02-14T12:19:18;4.23;;;3.83;;
13743;SDS011;6943;52.368;9.966;2024-02-14T12:21:46;4.33;;;3.60;;
13743;SDS011;6943;52.368;9.966;2024-02-14T12:24:14;3.80;;;3.40;;
13743;SDS011;6943;52.368;9.966;2024-02-14T12:26:43;3.93;;;3.53;;
13743;SDS011;6943;52.368;9.966;2024-02-14T12:29:13;3.73;;;3.30;;
13743;SDS011;6943;52.368;9.966;2024-02-14T12:31:42;3.77;;;3.47;;
13743;SDS011;6943;52.368;9.966;2024-02-14T12:34:12;4.70;;;3.73;;
13743;SDS011;6943;52.368;9.966;2024-02-14T12:36:43;4.73;;;4.23;;
13743;SDS011;6943;52.368;9.966;2024-02-14T12:39:12;4.47;;;3.83;;
13743;SDS011;6943;52.368;9.966;2024-02-14T12:41:40;4.40;;;4.00;;
13743;SDS011;6943;52.368;9.966;2024-02-14T12:44:09;4.70;;;4.20;;
13743;SDS011;6943;52.368;9.966;2024-02-14T12:46:38;4.60;;;4.20;;
13743;SDS011;6943;52.368;9.966;2024-02-14T12:49:07;4.80;;;4.23;;
13743;SDS011;6943;52.368;9.966;2024-02-14T12:51:36;5.33;;;4.90;;
13743;SDS011;6943;52.368;9.966;2024-02-14T12:54:05;4.77;;;4.37;;
13743;SDS011;6943;52.368;9.966;2024-02-14T12:56:36;4.93;;;4.53;;
13743;SDS011;6943;52.368;9.966;2024-02-14T12:59:05;5.13;;;4.63;;
13743;SDS011;6943;52.368;9.966;2024-02-14T13:01:37;5.93;;;5.03;;
13743;SDS011;6943;52.368;9.966;2024-02-14T13:04:06;5.37;;;4.97;;
13743;SDS011;6943;52.368;9.966;2024-02-14T13:06:35;5.87;;;4.90;;
13743;SDS011;6943;52.368;9.966;2024-02-14T13:09:04;5.50;;;5.00;;
13743;SDS011;6943;52.368;9.966;2024-02-14T13:11:33;6.10;;;5.00;;
13743;SDS011;6943;52.368;9.966;2024-02-14T13:14:02;5.67;;;5.17;;
13743;SDS011;6943;52.368;9.966;2024-02-14T13:16:32;5.07;;;4.67;;
13743;SDS011;6943;52.368;9.966;2024-02-14T13:19:00;6.57;;;4.80;;
13743;SDS011;6943;52.368;9.966;2024-02-14T13:21:30;5.37;;;4.87;;
13743;SDS011;6943;52.368;9.966;2024-02-14T13:23:58;5.70;;;5.27;;
13743;SDS011;6943;52.368;9.966;2024-02-14T13:26:28;5.13;;;4.73;;
13743;SDS011;6943;52.368;9.966;2024-02-14T13:28:59;7.17;;;5.10;;
13743;SDS011;6943;52.368;9.966;2024-02-14T13:31:28;5.43;;;5.03;;
13743;SDS011;6943;52.368;9.966;2024-02-14T13:33:56;5.43;;;4.57;;
13743;SDS011;6943;52.368;9.966;2024-02-14T13:36:28;5.57;;;4.93;;
13743;SDS011;6943;52.368;9.966;2024-02-14T13:38:57;6.70;;;5.47;;
13743;SDS011;6943;52.368;9.966;2024-02-14T13:41:26;7.17;;;6.47;;
13743;SDS011;6943;52.368;9.966;2024-02-14T13:43:55;5.97;;;5.47;;
13743;SDS011;6943;52.368;9.966;2024-02-14T13:46:23;6.37;;;5.23;;
13743;SDS011;6943;52.368;9.966;2024-02-14T13:48:52;4.57;;;4.20;;
13743;SDS011;6943;52.368;9.966;2024-02-14T13:51:21;5.53;;;4.70;;
13743;SDS011;6943;52.368;9.966;2024-02-14T13:53:50;3.87;;;3.57;;
13743;SDS011;6943;52.368;9.966;2024-02-14T13:56:19;4.40;;;3.90;;
13743;SDS011;6943;52.368;9.966;2024-02-14T13:58:49;4.40;;;4.00;;
13743;SDS011;6943;52.368;9.966;2024-02-14T14:01:18;4.47;;;4.17;;
13743;SDS011;6943;52.368;9.966;2024-02-14T14:03:48;3.57;;;3.27;;
13743;SDS011;6943;52.368;9.966;2024-02-14T14:06:19;5.90;;;3.13;;
13743;SDS011;6943;52.368;9.966;2024-02-14T14:08:49;3.53;;;3.03;;
13743;SDS011;6943;52.368;9.966;2024-02-14T14:11:16;2.30;;;2.10;;
13743;SDS011;6943;52.368;9.966;2024-02-14T14:13:44;3.17;;;2.87;;
13743;SDS011;6943;52.368;9.966;2024-02-14T14:16:13;3.23;;;2.93;;
13743;SDS011;6943;52.368;9.966;2024-02-14T14:18:42;2.50;;;2.30;;
13743;SDS011;6943;52.368;9.966;2024-02-14T14:21:11;2.53;;;2.33;;
13743;SDS011;6943;52.368;9.966;2024-02-14T14:23:40;3.97;;;2.97;;
13743;SDS011;6943;52.368;9.966;2024-02-14T14:26:09;3.30;;;1.80;;
13743;SDS011;6943;52.368;9.966;2024-02-14T14:28:40;2.20;;;1.87;;
13743;SDS011;6943;52.368;9.966;2024-02-14T14:31:09;3.00;;;1.93;;
13743;SDS011;6943;52.368;9.966;2024-02-14T14:33:38;1.47;;;1.33;;
13743;SDS011;6943;52.368;9.966;2024-02-14T14:36:07;2.30;;;1.60;;
13743;SDS011;6943;52.368;9.966;2024-02-14T14:38:36;2.77;;;1.50;;
13743;SDS011;6943;52.368;9.966;2024-02-14T14:41:05;2.60;;;1.50;;
13743;SDS011;6943;52.368;9.966;2024-02-14T14:43:35;1.50;;;1.37;;
13743;SDS011;6943;52.368;9.966;2024-02-14T14:46:04;1.63;;;1.53;;
13743;SDS011;6943;52.368;9.966;2024-02-14T14:48:33;1.83;;;1.73;;
13743;SDS011;6943;52.368;9.966;2024-02-14T14:51:02;2.30;;;1.30;;
13743;SDS011;6943;52.368;9.966;2024-02-14T14:53:31;2.70;;;1.60;;
13743;SDS011;6943;52.368;9.966;2024-02-14T14:56:00;1.40;;;1.30;;
13743;SDS011;6943;52.368;9.966;2024-02-14T14:58:29;3.60;;;1.53;;
13743;SDS011;6943;52.368;9.966;2024-02-14T15:01:00;1.60;;;1.50;;
13743;SDS011;6943;52.368;9.966;2024-02-14T15:03:29;1.63;;;1.53;;
13743;SDS011;6943;52.368;9.966;2024-02-14T15:05:59;1.50;;;1.40;;
13743;SDS011;6943;52.368;9.966;2024-02-14T15:08:28;1.50;;;1.37;;